createdAt,value
2023-03-17T00:01:22.264Z,12.13
2023-03-17T00:03:51.527Z,7.85
2023-03-17T00:06:25.957Z,8.70
2023-03-17T00:08:57.438Z,9.07
2023-03-17T00:11:26.370Z,9.82
2023-03-17T00:13:54.073Z,5.57
2023-03-17T00:16:25.640Z,12.30
2023-03-17T00:18:54.572Z,11.77
2023-03-17T00:21:26.798Z,8.88
2023-03-17T00:23:55.346Z,9.32
2023-03-17T00:26:23.215Z,8.85
2023-03-17T00:28:51.350Z,8.13
2023-03-17T00:31:26.090Z,6.68
2023-03-17T00:33:55.752Z,7.22
2023-03-17T00:36:25.599Z,13.43
2023-03-17T00:38:53.536Z,8.63
2023-03-17T00:41:22.337Z,7.35
2023-03-17T00:43:50.698Z,8.50
2023-03-17T00:46:26.695Z,7.05
2023-03-17T00:48:55.133Z,6.78
2023-03-17T00:51:23.363Z,7.00
2023-03-17T00:53:51.787Z,8.75
2023-03-17T00:56:22.296Z,8.60
2023-03-17T00:58:50.147Z,7.03
2023-03-17T01:01:18.356Z,8.60
2023-03-17T01:03:49.605Z,10.60
2023-03-17T01:06:17.831Z,9.20
2023-03-17T01:08:45.724Z,7.22
2023-03-17T01:11:18.816Z,9.00
2023-03-17T01:13:48.257Z,6.60
2023-03-17T01:16:17.053Z,11.63
2023-03-17T01:18:45.581Z,7.93
2023-03-17T01:21:15.303Z,8.85
2023-03-17T01:23:43.488Z,7.55
2023-03-17T01:26:11.734Z,8.25
2023-03-17T01:28:39.510Z,8.35
2023-03-17T01:31:07.293Z,9.23
2023-03-17T01:33:35.072Z,7.47
2023-03-17T01:36:03.066Z,7.68
2023-03-17T01:38:32.576Z,10.15
2023-03-17T01:41:01.474Z,6.75
2023-03-17T01:43:30.749Z,7.88
2023-03-17T01:46:27.387Z,9.80
2023-03-17T01:49:06.611Z,8.10
2023-03-17T01:51:39.763Z,7.57
2023-03-17T01:54:12.557Z,8.60
2023-03-17T01:56:44.999Z,9.82
2023-03-17T01:59:18.036Z,10.75
2023-03-17T02:01:50.385Z,9.50
2023-03-17T02:04:19.508Z,11.55
2023-03-17T02:06:57.780Z,10.30
2023-03-17T02:09:29.113Z,7.18
2023-03-17T02:11:58.155Z,6.85
2023-03-17T02:14:26.490Z,8.52
2023-03-17T02:16:54.928Z,8.13
2023-03-17T02:19:22.876Z,7.93
2023-03-17T02:21:54.426Z,9.48
2023-03-17T02:24:28.881Z,9.15
2023-03-17T02:27:02.046Z,7.97
2023-03-17T02:29:30.700Z,8.32
2023-03-17T02:31:59.008Z,8.48
2023-03-17T02:34:27.520Z,7.65
2023-03-17T02:36:57.072Z,7.45
2023-03-17T02:39:25.582Z,7.20
2023-03-17T02:41:53.402Z,8.95
2023-03-17T02:44:21.345Z,9.50
2023-03-17T02:46:49.088Z,7.78
2023-03-17T02:49:17.366Z,10.45
2023-03-17T02:51:45.906Z,7.03
2023-03-17T02:54:15.057Z,7.30
2023-03-17T02:56:42.924Z,5.93
2023-03-17T02:59:10.712Z,7.78
2023-03-17T03:01:39.650Z,7.57
2023-03-17T03:04:07.472Z,8.35
2023-03-17T03:06:36.040Z,10.82
2023-03-17T03:09:05.628Z,9.55
2023-03-17T03:11:34.764Z,8.75
2023-03-17T03:14:02.533Z,8.82
2023-03-17T03:16:30.452Z,7.78
2023-03-17T03:18:58.367Z,9.73
2023-03-17T03:21:26.392Z,9.60
2023-03-17T03:23:54.204Z,8.45
2023-03-17T03:26:22.206Z,8.98
2023-03-17T03:28:52.025Z,8.57
2023-03-17T03:31:19.826Z,9.23
2023-03-17T03:33:47.658Z,10.85
2023-03-17T03:36:15.948Z,8.93
2023-03-17T03:38:43.676Z,9.30
2023-03-17T03:41:11.609Z,11.07
2023-03-17T03:43:39.374Z,11.05
2023-03-17T03:46:08.684Z,6.90
2023-03-17T03:48:36.495Z,9.68
2023-03-17T03:51:04.482Z,11.25
2023-03-17T03:53:32.288Z,12.70
2023-03-17T03:56:00.047Z,10.05
2023-03-17T03:58:27.834Z,11.27
2023-03-17T04:00:55.722Z,9.75
2023-03-17T04:03:24.791Z,10.68
2023-03-17T04:05:52.607Z,10.60
2023-03-17T04:08:20.877Z,9.25
2023-03-17T04:10:48.665Z,10.73
2023-03-17T04:13:16.488Z,14.38
2023-03-17T04:15:44.395Z,9.93
2023-03-17T04:18:12.966Z,11.15
2023-03-17T04:20:42.348Z,10.25
2023-03-17T04:23:10.211Z,9.65
2023-03-17T04:25:38.013Z,14.05
2023-03-17T04:28:06.396Z,12.20
2023-03-17T04:30:34.447Z,14.20
2023-03-17T04:33:02.402Z,10.77
2023-03-17T04:35:30.573Z,9.73
2023-03-17T04:37:59.685Z,12.43
2023-03-17T04:40:27.514Z,7.47
2023-03-17T04:42:55.392Z,9.30
2023-03-17T04:45:23.199Z,12.48
2023-03-17T04:47:50.950Z,12.20
2023-03-17T04:50:18.956Z,7.80
2023-03-17T04:52:46.837Z,14.55
2023-03-17T04:55:16.586Z,11.20
2023-03-17T04:57:44.929Z,12.88
2023-03-17T05:00:15.367Z,10.88
2023-03-17T05:02:43.140Z,8.50
2023-03-17T05:05:11.192Z,8.25
2023-03-17T05:07:38.898Z,9.25
2023-03-17T05:10:07.510Z,12.05
2023-03-17T05:12:37.580Z,10.40
2023-03-17T05:15:06.080Z,10.23
2023-03-17T05:17:33.855Z,10.32
2023-03-17T05:20:01.649Z,10.45
2023-03-17T05:22:29.567Z,11.70
2023-03-17T05:24:57.337Z,12.50
2023-03-17T05:27:25.212Z,13.88
2023-03-17T05:29:54.279Z,15.98
2023-03-17T05:32:22.123Z,10.50
2023-03-17T05:34:49.970Z,8.40
2023-03-17T05:37:17.705Z,9.60
2023-03-17T05:39:45.407Z,10.25
2023-03-17T05:42:13.848Z,9.63
2023-03-17T05:44:41.515Z,12.60
2023-03-17T05:47:10.697Z,15.48
2023-03-17T05:49:38.488Z,13.75
2023-03-17T05:52:06.453Z,14.43
2023-03-17T05:54:36.831Z,10.32
2023-03-17T05:57:04.940Z,11.05
2023-03-17T05:59:33.363Z,16.17
2023-03-17T06:02:01.376Z,10.98
2023-03-17T06:04:30.904Z,12.52
2023-03-17T06:06:58.766Z,8.05
2023-03-17T06:09:26.814Z,11.50
2023-03-17T06:11:54.743Z,10.88
2023-03-17T06:14:22.446Z,11.65
2023-03-17T06:16:50.376Z,9.20
2023-03-17T06:19:18.206Z,8.98
2023-03-17T06:21:47.336Z,7.22
2023-03-17T06:24:15.212Z,10.27
2023-03-17T06:26:43.484Z,8.20
2023-03-17T06:29:12.501Z,12.10
2023-03-17T06:31:42.168Z,7.35
2023-03-17T06:34:09.965Z,11.98
2023-03-17T06:36:39.163Z,15.13
2023-03-17T06:39:09.439Z,14.80
2023-03-17T06:41:37.377Z,11.70
2023-03-17T06:44:06.189Z,8.98
2023-03-17T06:46:34.545Z,17.88
2023-03-17T06:49:03.299Z,9.88
2023-03-17T06:51:32.389Z,8.38
2023-03-17T06:54:00.110Z,9.75
2023-03-17T06:56:30.550Z,10.90
2023-03-17T06:58:58.761Z,16.13
2023-03-17T07:01:27.025Z,11.73
2023-03-17T07:03:55.398Z,11.60
2023-03-17T07:06:24.237Z,9.50
2023-03-17T07:08:52.332Z,10.13
2023-03-17T07:11:20.323Z,10.80
2023-03-17T07:13:49.680Z,15.32
2023-03-17T07:16:19.614Z,12.93
2023-03-17T07:18:47.682Z,9.93
2023-03-17T07:21:15.645Z,11.45
2023-03-17T07:23:43.472Z,18.27
2023-03-17T07:26:11.266Z,9.07
2023-03-17T07:28:40.320Z,8.65
2023-03-17T07:31:11.512Z,11.50
2023-03-17T07:33:39.626Z,10.43
2023-03-17T07:36:08.954Z,9.55
2023-03-17T07:38:37.391Z,9.95
2023-03-17T07:41:09.787Z,13.65
2023-03-17T07:43:38.693Z,10.57
2023-03-17T07:46:07.379Z,8.27
2023-03-17T07:48:40.945Z,11.30
2023-03-17T07:51:14.466Z,9.23
2023-03-17T07:53:42.957Z,9.02
2023-03-17T07:56:11.085Z,12.70
2023-03-17T07:58:40.106Z,10.75
2023-03-17T08:01:09.880Z,9.60
2023-03-17T08:03:41.373Z,10.93
2023-03-17T08:06:09.783Z,11.02
2023-03-17T08:08:37.659Z,13.38
2023-03-17T08:11:07.709Z,10.10
2023-03-17T08:13:35.820Z,8.88
2023-03-17T08:16:03.709Z,7.63
2023-03-17T08:18:32.017Z,8.13
2023-03-17T08:21:02.087Z,10.15
2023-03-17T08:23:30.172Z,10.57
2023-03-17T08:25:58.811Z,10.05
2023-03-17T08:28:28.186Z,7.28
2023-03-17T08:30:58.832Z,6.68
2023-03-17T08:33:26.700Z,10.10
2023-03-17T08:35:54.584Z,9.07
2023-03-17T08:38:23.851Z,10.93
2023-03-17T08:40:52.279Z,9.95
2023-03-17T08:43:20.121Z,8.50
2023-03-17T08:45:48.151Z,7.07
2023-03-17T08:48:15.976Z,7.55
2023-03-17T08:50:43.780Z,6.50
2023-03-17T08:53:11.944Z,9.80
2023-03-17T08:55:41.174Z,8.07
2023-03-17T08:58:09.438Z,8.57
2023-03-17T09:00:37.343Z,6.00
2023-03-17T09:03:05.751Z,6.25
2023-03-17T09:05:36.857Z,7.72
2023-03-17T09:08:06.266Z,6.28
2023-03-17T09:10:34.405Z,7.93
2023-03-17T09:13:04.643Z,8.32
2023-03-17T09:15:34.648Z,6.53
2023-03-17T09:18:03.250Z,6.53
2023-03-17T09:20:31.538Z,6.53
2023-03-17T09:22:59.657Z,9.10
2023-03-17T09:25:27.558Z,6.45
2023-03-17T09:27:56.650Z,6.75
2023-03-17T09:30:27.139Z,6.40
2023-03-17T09:32:54.935Z,6.82
2023-03-17T09:35:23.010Z,6.15
2023-03-17T09:37:51.634Z,6.32
2023-03-17T09:40:22.242Z,6.97
2023-03-17T09:43:06.218Z,13.18
2023-03-17T09:45:43.734Z,10.25
2023-03-17T09:48:33.616Z,7.50
2023-03-17T09:51:04.960Z,6.85
2023-03-17T09:53:36.407Z,8.40
2023-03-17T09:56:09.812Z,6.85
2023-03-17T09:58:40.540Z,9.15
2023-03-17T10:01:13.083Z,7.35
2023-03-17T10:03:41.358Z,6.22
2023-03-17T10:06:30.617Z,7.30
2023-03-17T10:09:03.368Z,5.80
2023-03-17T10:11:40.094Z,6.57
2023-03-17T10:14:19.274Z,6.90
2023-03-17T10:16:54.273Z,11.05
2023-03-17T10:19:28.141Z,4.70
2023-03-17T10:24:30.877Z,7.00
2023-03-17T10:27:02.954Z,8.52
2023-03-17T10:29:31.837Z,7.65
2023-03-17T10:32:01.081Z,7.43
2023-03-17T10:34:32.177Z,6.38
2023-03-17T10:37:03.085Z,8.13
2023-03-17T10:39:32.856Z,6.32
2023-03-17T10:42:08.586Z,8.30
2023-03-17T10:44:43.087Z,8.30
2023-03-17T10:47:33.246Z,6.28
2023-03-17T10:50:05.996Z,10.98
2023-03-17T10:52:39.545Z,9.43
2023-03-17T10:55:09.400Z,6.25
2023-03-17T10:57:39.185Z,8.25
2023-03-17T11:00:15.824Z,6.90
2023-03-17T11:02:49.287Z,6.43
2023-03-17T11:05:21.997Z,13.73
2023-03-17T11:07:50.243Z,10.18
2023-03-17T11:10:21.616Z,6.78
2023-03-17T11:12:55.869Z,5.97
2023-03-17T11:15:24.496Z,9.23
2023-03-17T11:17:58.928Z,4.65
2023-03-17T11:20:47.647Z,9.48
2023-03-17T11:23:32.814Z,6.25
2023-03-17T11:26:11.635Z,8.00
2023-03-17T11:28:45.492Z,5.25
2023-03-17T11:31:25.865Z,6.05
2023-03-17T11:34:05.279Z,8.10
2023-03-17T11:36:59.149Z,7.63
2023-03-17T11:42:09.422Z,6.25
2023-03-17T11:45:12.845Z,5.05
2023-03-17T11:48:08.354Z,4.60
2023-03-17T11:50:44.104Z,5.50
2023-03-17T11:53:44.187Z,6.13
2023-03-17T11:56:18.972Z,6.78
2023-03-17T11:58:51.264Z,4.40
2023-03-17T12:01:27.203Z,8.40
2023-03-17T12:04:07.431Z,4.53
2023-03-17T12:06:43.013Z,5.45
2023-03-17T12:09:20.250Z,6.43
2023-03-17T12:11:48.879Z,3.95
2023-03-17T12:14:28.162Z,5.63
2023-03-17T12:17:04.906Z,4.63
2023-03-17T12:19:42.415Z,5.30
2023-03-17T12:22:19.984Z,7.70
2023-03-17T12:24:55.497Z,7.93
2023-03-17T12:27:28.322Z,6.80
2023-03-17T12:30:00.452Z,6.53
2023-03-17T12:32:37.080Z,5.55
2023-03-17T12:35:23.977Z,5.63
2023-03-17T12:37:53.488Z,4.88
2023-03-17T12:40:25.884Z,5.07
2023-03-17T12:43:03.494Z,3.25
2023-03-17T12:45:54.400Z,4.93
2023-03-17T12:48:44.611Z,4.72
2023-03-17T12:51:41.185Z,3.65
2023-03-17T12:54:20.172Z,5.22
2023-03-17T12:56:50.369Z,3.78
2023-03-17T12:59:21.573Z,5.13
2023-03-17T13:02:16.215Z,3.58
2023-03-17T13:07:24.286Z,4.53
2023-03-17T13:10:17.142Z,4.40
2023-03-17T13:13:13.773Z,2.80
2023-03-17T13:15:59.350Z,3.38
2023-03-17T13:19:07.582Z,3.22
2023-03-17T13:21:37.492Z,4.82
2023-03-17T13:24:37.028Z,3.63
2023-03-17T13:27:12.394Z,2.85
2023-03-17T13:29:45.884Z,3.97
2023-03-17T13:32:36.980Z,5.47
2023-03-17T13:40:13.040Z,4.25
2023-03-17T13:43:56.346Z,3.88
2023-03-17T13:47:22.225Z,2.10
2023-03-17T14:05:53.206Z,4.70
2023-03-17T14:08:40.055Z,2.00
2023-03-17T14:11:40.025Z,2.35
2023-03-17T14:14:33.014Z,6.05
2023-03-17T14:17:08.598Z,3.28
2023-03-17T14:19:41.750Z,1.98
2023-03-17T14:22:26.194Z,3.97
2023-03-17T14:27:27.384Z,1.83
2023-03-17T14:29:56.053Z,3.65
2023-03-17T14:32:26.549Z,2.10
2023-03-17T14:35:01.574Z,1.63
2023-03-17T14:37:31.250Z,4.80
2023-03-17T14:40:00.115Z,2.03
2023-03-17T14:42:31.158Z,5.13
2023-03-17T14:45:04.120Z,4.03
2023-03-17T14:47:45.427Z,3.78
2023-03-17T14:50:20.604Z,2.90
2023-03-17T14:52:56.578Z,1.75
2023-03-17T14:55:35.272Z,6.28
2023-03-17T14:58:10.017Z,4.88
2023-03-17T15:00:39.082Z,3.65
2023-03-17T15:08:14.518Z,4.38
2023-03-17T15:15:44.378Z,6.50
2023-03-17T15:18:15.322Z,5.03
2023-03-17T15:20:44.420Z,11.40
2023-03-17T15:23:18.236Z,7.18
2023-03-17T15:25:49.855Z,4.93
2023-03-17T15:28:20.661Z,9.63
2023-03-17T15:30:50.744Z,7.78
2023-03-17T15:33:23.059Z,8.35
2023-03-17T15:35:51.684Z,6.40
2023-03-17T15:38:19.564Z,6.80
2023-03-17T15:40:50.513Z,11.15
2023-03-17T15:43:21.854Z,8.18
2023-03-17T15:45:53.713Z,5.30
2023-03-17T15:48:24.506Z,8.93
2023-03-17T15:50:53.630Z,4.05
2023-03-17T15:53:21.481Z,6.13
2023-03-17T15:55:49.600Z,5.85
2023-03-17T15:58:18.770Z,4.50
2023-03-17T16:00:52.565Z,5.80
2023-03-17T16:03:28.262Z,5.10
2023-03-17T16:05:56.608Z,6.63
2023-03-17T16:08:24.912Z,4.63
2023-03-17T16:10:53.069Z,7.72
2023-03-17T16:13:22.440Z,7.18
2023-03-17T16:15:56.543Z,10.60
2023-03-17T16:18:32.215Z,5.70
2023-03-17T16:21:00.462Z,5.85
2023-03-17T16:23:30.973Z,9.23
2023-03-17T16:26:13.919Z,8.00
2023-03-17T16:31:20.489Z,10.02
2023-03-17T16:33:49.003Z,6.07
2023-03-17T16:36:18.435Z,6.18
2023-03-17T16:38:46.665Z,7.07
2023-03-17T16:41:20.989Z,6.25
2023-03-17T16:43:55.236Z,7.88
2023-03-17T16:46:23.762Z,9.18
2023-03-17T16:48:52.065Z,9.20
2023-03-17T16:51:29.155Z,8.43
2023-03-17T16:53:59.738Z,6.57
2023-03-17T16:56:28.450Z,11.35
2023-03-17T16:58:57.733Z,18.58
2023-03-17T17:01:28.153Z,28.35
2023-03-17T17:03:56.447Z,9.18
2023-03-17T17:06:25.298Z,5.95
2023-03-17T17:08:56.297Z,9.05
2023-03-17T17:11:24.020Z,9.43
2023-03-17T17:13:51.887Z,9.43
2023-03-17T17:16:25.103Z,8.38
2023-03-17T17:18:56.196Z,10.70
2023-03-17T17:21:27.245Z,8.50
2023-03-17T17:23:55.838Z,9.25
2023-03-17T17:26:23.885Z,6.78
2023-03-17T17:28:51.957Z,5.40
2023-03-17T17:31:21.252Z,7.85
2023-03-17T17:33:49.181Z,6.93
2023-03-17T17:36:18.329Z,7.57
2023-03-17T17:38:46.841Z,7.05
2023-03-17T17:41:17.067Z,6.70
2023-03-17T17:43:46.152Z,3.53
2023-03-17T17:46:17.964Z,11.70
2023-03-17T17:48:47.791Z,6.05
2023-03-17T17:51:15.830Z,5.25
2023-03-17T17:53:43.765Z,3.10
2023-03-17T17:56:15.219Z,3.50
2023-03-17T17:58:45.797Z,7.07
2023-03-17T18:01:16.744Z,7.78
2023-03-17T18:03:44.674Z,6.82
2023-03-17T18:06:13.968Z,5.45
2023-03-17T18:08:43.524Z,7.80
2023-03-17T18:11:11.840Z,7.20
2023-03-17T18:13:41.180Z,7.45
2023-03-17T18:16:10.541Z,6.25
2023-03-17T18:18:40.695Z,10.05
2023-03-17T18:21:08.790Z,14.65
2023-03-17T18:23:38.355Z,11.57
2023-03-17T18:26:08.697Z,28.27
2023-03-17T18:28:36.666Z,20.83
2023-03-17T18:31:09.538Z,14.70
2023-03-17T18:33:37.622Z,9.90
2023-03-17T18:36:06.768Z,10.20
2023-03-17T18:38:34.761Z,8.95
2023-03-17T18:41:04.889Z,14.70
2023-03-17T18:43:32.683Z,8.60
2023-03-17T18:46:00.811Z,11.00
2023-03-17T18:48:28.681Z,13.32
2023-03-17T18:50:56.711Z,9.65
2023-03-17T18:53:24.875Z,9.95
2023-03-17T18:55:52.840Z,12.55
2023-03-17T18:58:22.183Z,9.02
2023-03-17T19:00:50.451Z,6.10
2023-03-17T19:03:18.784Z,8.27
2023-03-17T19:05:46.638Z,10.68
2023-03-17T19:08:16.247Z,7.53
2023-03-17T19:10:44.908Z,7.63
2023-03-17T19:13:13.423Z,4.72
2023-03-17T19:15:44.957Z,6.20
2023-03-17T19:18:12.868Z,6.95
2023-03-17T19:20:40.849Z,7.82
2023-03-17T19:23:08.549Z,9.70
2023-03-17T19:25:36.779Z,7.30
2023-03-17T19:28:05.341Z,6.90
2023-03-17T19:30:33.407Z,6.70
2023-03-17T19:33:02.809Z,8.40
2023-03-17T19:35:30.765Z,7.45
2023-03-17T19:37:58.760Z,10.77
2023-03-17T19:40:26.777Z,14.15
2023-03-17T19:42:54.634Z,10.10
2023-03-17T19:45:26.165Z,9.73
2023-03-17T19:47:54.066Z,12.98
2023-03-17T19:50:23.284Z,9.68
2023-03-17T19:52:53.081Z,7.75
2023-03-17T19:55:21.604Z,8.80
2023-03-17T19:57:50.364Z,9.32
2023-03-17T20:00:19.477Z,7.97
2023-03-17T20:02:47.627Z,8.80
2023-03-17T20:05:16.791Z,7.28
2023-03-17T20:07:46.488Z,9.25
2023-03-17T20:10:14.413Z,10.48
2023-03-17T20:12:42.828Z,11.45
2023-03-17T20:15:12.628Z,11.55
2023-03-17T20:17:41.037Z,13.52
2023-03-17T20:20:10.612Z,10.73
2023-03-17T20:22:40.303Z,9.77
2023-03-17T20:25:10.606Z,12.55
2023-03-17T20:27:38.874Z,10.88
2023-03-17T20:30:08.281Z,14.18
2023-03-17T20:32:36.464Z,7.35
2023-03-17T20:35:06.773Z,15.30
2023-03-17T20:37:35.714Z,9.13
2023-03-17T20:40:05.381Z,9.38
2023-03-17T20:42:34.581Z,8.35
2023-03-17T20:45:03.849Z,14.43
2023-03-17T20:47:31.750Z,10.98
2023-03-17T20:50:00.171Z,16.00
2023-03-17T20:52:30.293Z,14.00
2023-03-17T20:54:59.511Z,12.60
2023-03-17T20:57:27.645Z,12.93
2023-03-17T20:59:58.292Z,13.55
2023-03-17T21:02:26.509Z,13.95
2023-03-17T21:04:54.285Z,15.82
2023-03-17T21:07:23.158Z,15.25
2023-03-17T21:09:51.925Z,18.48
2023-03-17T21:12:21.287Z,15.25
2023-03-17T21:14:49.139Z,13.95
2023-03-17T21:17:19.037Z,10.63
2023-03-17T21:19:47.361Z,16.83
2023-03-17T21:22:16.047Z,15.23
2023-03-17T21:24:43.794Z,15.63
2023-03-17T21:27:12.637Z,13.18
2023-03-17T21:29:41.366Z,13.05
2023-03-17T21:32:09.429Z,10.80
2023-03-17T21:34:38.676Z,17.90
2023-03-17T21:37:06.899Z,12.32
2023-03-17T21:39:36.272Z,15.63
2023-03-17T21:42:05.172Z,11.40
2023-03-17T21:44:33.093Z,15.23
2023-03-17T21:47:02.611Z,15.43
2023-03-17T21:49:30.575Z,14.63
2023-03-17T21:51:59.803Z,25.55
2023-03-17T21:54:28.337Z,18.63
2023-03-17T21:56:56.389Z,25.58
2023-03-17T21:59:26.001Z,19.60
2023-03-17T22:01:53.752Z,14.50
2023-03-17T22:04:22.000Z,14.73
2023-03-17T22:06:49.810Z,14.63
2023-03-17T22:09:19.415Z,14.63
2023-03-17T22:11:47.362Z,15.05
2023-03-17T22:14:20.007Z,15.30
2023-03-17T22:16:48.693Z,16.48
2023-03-17T22:19:18.728Z,16.35
2023-03-17T22:21:48.008Z,12.70
2023-03-17T22:24:15.932Z,15.57
2023-03-17T22:26:45.014Z,12.85
2023-03-17T22:29:13.512Z,13.10
2023-03-17T22:31:42.010Z,11.63
2023-03-17T22:34:09.857Z,17.33
2023-03-17T22:36:38.018Z,9.02
2023-03-17T22:39:08.692Z,12.93
2023-03-17T22:41:36.486Z,11.85
2023-03-17T22:44:08.235Z,16.17
2023-03-17T22:46:36.155Z,9.35
2023-03-17T22:49:04.507Z,15.50
2023-03-17T22:51:32.330Z,14.77
2023-03-17T22:54:00.136Z,11.07
2023-03-17T22:56:28.559Z,11.23
2023-03-17T22:58:57.585Z,11.93
2023-03-17T23:01:27.369Z,13.27
2023-03-17T23:03:55.918Z,13.70
2023-03-17T23:06:23.823Z,11.40
2023-03-17T23:08:52.183Z,16.50
2023-03-17T23:11:23.172Z,13.60
2023-03-17T23:13:52.593Z,13.98
2023-03-17T23:16:21.995Z,12.68
2023-03-17T23:18:52.606Z,15.63
2023-03-17T23:21:23.686Z,15.40
2023-03-17T23:23:54.628Z,12.30
2023-03-17T23:26:22.453Z,10.32
2023-03-17T23:28:50.347Z,12.13
2023-03-17T23:31:19.550Z,13.85
2023-03-17T23:33:48.066Z,10.25
2023-03-17T23:36:17.987Z,12.55
2023-03-17T23:38:46.483Z,15.05
2023-03-17T23:41:15.142Z,12.90
2023-03-17T23:43:43.946Z,9.13
2023-03-17T23:46:13.040Z,9.98
2023-03-17T23:48:42.887Z,11.57
2023-03-17T23:51:12.397Z,15.27
2023-03-17T23:53:42.878Z,14.23
2023-03-17T23:56:13.039Z,19.77
2023-03-17T23:58:41.370Z,22.80
